BWU weather

Sydney Bankstown Airport
Sydney, New South Wales, Australia

Public forecast

Using degrees Celsius for public forecast. Weather courtesy of forecast.io.

METAR (pilot weather report)

Closest report is Sydney Kingsford Smith International Airport, 9.5 nm (17.6 km) E. Retrieved 2018/12/10 13:30 UTC (14 minutes ago):

YSSY 101330Z 17010KT 9999 FEW014 BKN250 21/18 Q1018 INTER 1400/1630 5000 SHRA BKN010

TAF (pilot weather forecast)

Closest forecast is Sydney Kingsford Smith International Airport, 9.5 nm (17.6 km) E. Retrieved 2018/12/10 12:00 UTC (2 hours ago):

TAF YSSY 101102Z 1012/1118 16015KT 9999 -SHRA FEW010 SCT020 BKN030 FM110000 14015KT 9999 -SHRA SCT025 BKN035 FM110900 10008KT 9999 -DZ SCT020 SCT030 INTER 1012/1021 5000 SHRA BKN010 INTER 1110/1118 3000 DZ BKN008